Time;durP1;ratioP1;P1;durP2;ratioP2;P2;SDS_P1;SDS_P2;PMS_P1;PMS_P2;Temp;Humidity;BMP_temperature;BMP_pressure;BME280_temperature;BME280_humidity;BME280_pressure;Samples;Min_cycle;Max_cycle;Signal;HPM_P1;HPM_P2
2024/02/14 00:02:25;;;;;;;22.30;20.90;;;;;;;;;;5094075;28;20431;-79
2024/02/14 00:04:54;;;;;;;21.93;20.53;;;;;;;;;;5094056;28;20460;-79
2024/02/14 00:07:21;;;;;;;21.07;19.73;;;;;;;;;;5091276;28;20481;-79
2024/02/14 00:09:48;;;;;;;21.10;19.60;;;;;;;;;;5073826;28;20449;-79
2024/02/14 00:12:15;;;;;;;20.55;19.35;;;;;;;;;;5073675;28;20505;-79
2024/02/14 00:14:42;;;;;;;21.43;20.23;;;;;;;;;;5073335;28;20227;-79
2024/02/14 00:17:10;;;;;;;20.23;19.13;;;;;;;;;;5073055;28;20417;-80
2024/02/14 00:19:37;;;;;;;20.97;19.67;;;;;;;;;;5072989;28;20815;-79
2024/02/14 00:22:20;;;;;;;21.33;19.93;;;;;;;;;;5107717;27;20538;-78
2024/02/14 00:24:47;;;;;;;21.20;19.47;;;;;;;;;;5089146;28;20852;-77
2024/02/14 00:27:14;;;;;;;20.73;19.43;;;;;;;;;;5086774;28;20458;-77
2024/02/14 00:29:43;;;;;;;20.57;19.40;;;;;;;;;;5087203;28;20544;-77
2024/02/14 00:32:10;;;;;;;21.17;19.90;;;;;;;;;;5088580;28;20477;-78
2024/02/14 00:34:37;;;;;;;21.27;19.77;;;;;;;;;;5086938;28;20203;-77
2024/02/14 00:37:04;;;;;;;21.13;19.63;;;;;;;;;;5086413;28;20207;-78
2024/02/14 00:39:33;;;;;;;21.60;20.10;;;;;;;;;;5087074;28;20448;-77
2024/02/14 00:42:00;;;;;;;22.08;20.40;;;;;;;;;;5087244;28;20503;-78
2024/02/14 00:44:27;;;;;;;20.60;19.50;;;;;;;;;;5086991;28;20240;-76
2024/02/14 00:46:57;;;;;;;21.90;20.40;;;;;;;;;;5086367;28;20420;-78
2024/02/14 00:49:24;;;;;;;21.08;19.67;;;;;;;;;;5087369;28;20543;-78
2024/02/14 00:51:51;;;;;;;20.17;18.87;;;;;;;;;;5086967;28;20667;-78
2024/02/14 00:54:18;;;;;;;21.70;20.40;;;;;;;;;;5087177;28;20424;-77
2024/02/14 00:56:46;;;;;;;20.63;19.47;;;;;;;;;;5086480;28;20441;-77
2024/02/14 00:59:13;;;;;;;21.40;19.47;;;;;;;;;;5087025;28;20451;-77
2024/02/14 01:01:40;;;;;;;20.97;19.77;;;;;;;;;;5086733;28;20822;-78
2024/02/14 01:04:08;;;;;;;20.97;19.57;;;;;;;;;;5086837;28;20524;-80
2024/02/14 01:06:35;;;;;;;19.97;18.87;;;;;;;;;;5085942;28;20925;-77
2024/02/14 01:09:03;;;;;;;20.03;18.83;;;;;;;;;;5086756;28;20493;-77
2024/02/14 01:11:30;;;;;;;21.00;19.40;;;;;;;;;;5089202;28;20456;-78
2024/02/14 01:13:58;;;;;;;21.70;20.50;;;;;;;;;;5094103;28;20444;-78
2024/02/14 01:16:46;;;;;;;20.77;19.47;;;;;;;;;;5106425;28;20414;-78
2024/02/14 01:19:13;;;;;;;21.43;20.07;;;;;;;;;;5105017;28;20527;-78
2024/02/14 01:21:41;;;;;;;20.43;19.33;;;;;;;;;;5106457;28;20549;-78
2024/02/14 01:24:08;;;;;;;20.40;19.00;;;;;;;;;;5107002;28;20438;-78
2024/02/14 01:26:35;;;;;;;20.63;19.33;;;;;;;;;;5106340;28;20532;-78
2024/02/14 01:32:09;;;;;;;20.60;19.40;;;;;;;;;;5100649;28;20352;-77
2024/02/14 01:34:36;;;;;;;20.33;19.13;;;;;;;;;;5092985;28;20800;-77
2024/02/14 01:37:03;;;;;;;20.57;19.37;;;;;;;;;;5092476;28;20453;-78
2024/02/14 01:39:30;;;;;;;20.33;19.13;;;;;;;;;;5092483;28;20973;-77
2024/02/14 01:45:02;;;;;;;21.33;19.80;;;;;;;;;;5071868;28;20404;-77
2024/02/14 01:47:32;;;;;;;20.07;18.97;;;;;;;;;;5071670;28;20565;-78
2024/02/14 01:49:59;;;;;;;20.23;19.03;;;;;;;;;;5072546;28;20460;-78
2024/02/14 01:52:26;;;;;;;21.67;20.37;;;;;;;;;;5072558;28;20437;-77
2024/02/14 01:58:04;;;;;;;21.43;20.13;;;;;;;;;;5070280;28;20561;-78
2024/02/14 02:00:32;;;;;;;21.60;20.10;;;;;;;;;;5072644;28;20424;-78
2024/02/14 02:03:00;;;;;;;20.80;19.60;;;;;;;;;;5072626;28;20526;-78
2024/02/14 02:05:28;;;;;;;21.13;19.53;;;;;;;;;;5072684;28;20464;-78
2024/02/14 02:07:55;;;;;;;20.50;19.27;;;;;;;;;;5071919;28;20492;-79
2024/02/14 02:10:25;;;;;;;20.47;19.17;;;;;;;;;;5072631;28;20446;-78
2024/02/14 02:12:52;;;;;;;21.30;19.97;;;;;;;;;;5072585;28;20446;-79
2024/02/14 02:15:19;;;;;;;21.20;19.90;;;;;;;;;;5072509;28;20450;-79
2024/02/14 02:17:52;;;;;;;20.83;19.43;;;;;;;;;;5071470;28;20997;-79
2024/02/14 02:20:20;;;;;;;19.83;18.50;;;;;;;;;;5072455;28;20469;-79
2024/02/14 02:22:49;;;;;;;19.30;18.00;;;;;;;;;;5072192;28;20491;-78
2024/02/14 02:25:16;;;;;;;19.87;18.67;;;;;;;;;;5071960;28;20933;-78
2024/02/14 02:27:43;;;;;;;19.30;18.00;;;;;;;;;;5071316;28;20960;-77
2024/02/14 02:30:10;;;;;;;20.70;19.23;;;;;;;;;;5072325;28;20564;-78
2024/02/14 02:32:38;;;;;;;19.70;18.70;;;;;;;;;;5072271;28;20490;-78
2024/02/14 02:35:05;;;;;;;19.30;18.30;;;;;;;;;;5072103;28;20452;-77
2024/02/14 02:37:32;;;;;;;19.53;18.30;;;;;;;;;;5075904;28;20493;-78
2024/02/14 02:40:01;;;;;;;18.17;17.10;;;;;;;;;;5085276;28;20449;-77
2024/02/14 02:42:29;;;;;;;19.20;18.00;;;;;;;;;;5091537;28;21032;-77
2024/02/14 02:44:56;;;;;;;19.03;18.03;;;;;;;;;;5090829;28;20457;-78
2024/02/14 02:47:23;;;;;;;19.63;18.20;;;;;;;;;;5091187;28;20444;-78
2024/02/14 02:49:50;;;;;;;19.70;18.13;;;;;;;;;;5091427;28;21057;-78
2024/02/14 02:52:17;;;;;;;19.23;18.23;;;;;;;;;;5091416;28;20964;-78
2024/02/14 02:54:44;;;;;;;20.27;18.87;;;;;;;;;;5091422;28;20890;-77
2024/02/14 02:57:12;;;;;;;17.97;16.97;;;;;;;;;;5091028;28;20451;-78
2024/02/14 02:59:42;;;;;;;19.50;18.30;;;;;;;;;;5091488;28;20445;-78
2024/02/14 03:02:11;;;;;;;19.80;18.60;;;;;;;;;;5091583;28;20565;-78
2024/02/14 03:04:38;;;;;;;18.40;17.40;;;;;;;;;;5091397;28;20445;-78
2024/02/14 03:07:08;;;;;;;18.67;17.67;;;;;;;;;;5090287;28;20445;-79
2024/02/14 03:09:35;;;;;;;18.23;17.33;;;;;;;;;;5090939;28;20453;-78
2024/02/14 03:12:02;;;;;;;19.53;18.50;;;;;;;;;;5091211;28;20510;-78
2024/02/14 03:14:32;;;;;;;18.40;17.40;;;;;;;;;;5090994;28;20423;-79
2024/02/14 03:16:59;;;;;;;19.43;18.30;;;;;;;;;;5090638;28;20444;-77
2024/02/14 03:19:27;;;;;;;18.90;17.73;;;;;;;;;;5091017;28;20469;-78
2024/02/14 03:21:54;;;;;;;19.03;17.60;;;;;;;;;;5090536;28;20492;-78
2024/02/14 03:24:21;;;;;;;18.40;17.40;;;;;;;;;;5090568;28;20457;-78
2024/02/14 03:26:51;;;;;;;18.40;17.30;;;;;;;;;;5090302;28;20440;-78
2024/02/14 03:29:19;;;;;;;18.50;17.47;;;;;;;;;;5090731;28;20559;-78
2024/02/14 03:31:47;;;;;;;17.60;16.70;;;;;;;;;;5090692;28;20465;-77
2024/02/14 03:34:14;;;;;;;18.10;17.20;;;;;;;;;;5090757;28;20449;-78
2024/02/14 03:36:42;;;;;;;18.07;17.07;;;;;;;;;;5090009;28;20415;-78
2024/02/14 03:39:10;;;;;;;17.90;17.00;;;;;;;;;;5090179;28;21119;-77
2024/02/14 03:41:37;;;;;;;18.07;16.87;;;;;;;;;;5090269;28;20481;-78
2024/02/14 03:44:06;;;;;;;18.30;17.40;;;;;;;;;;5078801;28;20454;-78
2024/02/14 03:46:35;;;;;;;17.43;16.63;;;;;;;;;;5069527;28;20980;-78
2024/02/14 03:49:03;;;;;;;17.90;17.00;;;;;;;;;;5070497;28;20471;-77
2024/02/14 03:51:30;;;;;;;17.77;16.87;;;;;;;;;;5070138;28;20474;-78
2024/02/14 03:53:58;;;;;;;18.50;17.47;;;;;;;;;;5070319;28;20476;-77
2024/02/14 03:56:26;;;;;;;17.73;16.80;;;;;;;;;;5068923;28;21102;-77
2024/02/14 03:58:53;;;;;;;18.07;17.13;;;;;;;;;;5069979;28;20478;-78
2024/02/14 04:01:20;;;;;;;17.60;16.60;;;;;;;;;;5069950;28;20545;-78
2024/02/14 04:03:49;;;;;;;17.80;16.80;;;;;;;;;;5070152;28;20472;-78
2024/02/14 04:06:17;;;;;;;17.83;16.70;;;;;;;;;;5069595;28;20446;-79
2024/02/14 04:08:45;;;;;;;16.77;15.97;;;;;;;;;;5069608;28;20973;-78
2024/02/14 04:11:13;;;;;;;19.70;18.60;;;;;;;;;;5069912;28;20456;-77
2024/02/14 04:13:40;;;;;;;18.30;17.30;;;;;;;;;;5070013;28;20450;-77
2024/02/14 04:16:08;;;;;;;17.70;16.70;;;;;;;;;;5069406;28;20483;-78
2024/02/14 04:18:35;;;;;;;18.27;16.87;;;;;;;;;;5069594;28;21041;-78
2024/02/14 04:21:03;;;;;;;18.40;17.50;;;;;;;;;;5069574;28;20457;-78
2024/02/14 04:23:32;;;;;;;17.27;16.43;;;;;;;;;;5069642;28;20480;-77
2024/02/14 04:25:59;;;;;;;18.07;17.03;;;;;;;;;;5069907;28;20446;-79
2024/02/14 04:28:26;;;;;;;16.83;15.93;;;;;;;;;;5069615;28;20461;-78
2024/02/14 04:30:55;;;;;;;17.50;16.70;;;;;;;;;;5069488;28;20449;-78
2024/02/14 04:33:22;;;;;;;16.90;16.00;;;;;;;;;;5069767;28;20527;-77
2024/02/14 04:35:50;;;;;;;16.40;15.70;;;;;;;;;;5069656;28;20537;-77
2024/02/14 04:38:18;;;;;;;17.20;16.13;;;;;;;;;;5069136;28;20465;-78
2024/02/14 04:40:45;;;;;;;16.87;16.13;;;;;;;;;;5069676;28;20446;-78
2024/02/14 04:43:13;;;;;;;17.90;17.00;;;;;;;;;;5069246;28;20572;-78
2024/02/14 04:45:40;;;;;;;18.00;16.93;;;;;;;;;;5069364;28;20450;-79
2024/02/14 04:48:07;;;;;;;17.97;17.13;;;;;;;;;;5068917;28;20465;-78
2024/02/14 04:50:34;;;;;;;19.90;18.93;;;;;;;;;;5069344;28;20542;-79
2024/02/14 04:53:01;;;;;;;19.37;18.37;;;;;;;;;;5069402;28;20445;-78
2024/02/14 04:55:28;;;;;;;18.97;17.80;;;;;;;;;;5069316;28;20833;-79
2024/02/14 04:57:58;;;;;;;24.37;22.30;;;;;;;;;;5068860;28;20497;-77
2024/02/14 05:00:25;;;;;;;18.13;17.00;;;;;;;;;;5069716;28;20460;-78
2024/02/14 05:02:52;;;;;;;114.63;79.60;;;;;;;;;;5069950;28;20501;-78
2024/02/14 05:05:20;;;;;;;20.10;18.87;;;;;;;;;;5069581;28;20495;-78
2024/02/14 05:07:47;;;;;;;18.57;17.23;;;;;;;;;;5070740;28;20493;-78
2024/02/14 05:10:14;;;;;;;21.10;19.83;;;;;;;;;;5073108;28;20785;-78
2024/02/14 05:12:41;;;;;;;22.67;21.27;;;;;;;;;;5073283;28;20495;-78
2024/02/14 05:15:11;;;;;;;52.77;46.73;;;;;;;;;;5073145;28;20499;-79
2024/02/14 05:17:38;;;;;;;28.17;25.97;;;;;;;;;;5072382;28;20473;-78
2024/02/14 05:20:08;;;;;;;23.33;22.03;;;;;;;;;;5073234;28;20445;-78
2024/02/14 05:22:36;;;;;;;23.03;21.83;;;;;;;;;;5073348;28;20497;-78
2024/02/14 05:25:04;;;;;;;24.93;23.43;;;;;;;;;;5073163;28;20473;-80
2024/02/14 05:27:30;;;;;;;27.23;25.70;;;;;;;;;;5072969;28;20472;-79
2024/02/14 05:29:58;;;;;;;29.13;27.53;;;;;;;;;;5073507;28;20503;-79
2024/02/14 05:32:26;;;;;;;30.67;29.00;;;;;;;;;;5073680;28;20442;-78
2024/02/14 05:34:54;;;;;;;30.63;28.93;;;;;;;;;;5073432;28;20424;-79
2024/02/14 05:37:21;;;;;;;32.10;30.40;;;;;;;;;;5073165;28;20450;-80
2024/02/14 05:39:48;;;;;;;34.67;32.47;;;;;;;;;;5074090;28;20453;-79
2024/02/14 05:42:16;;;;;;;35.17;33.20;;;;;;;;;;5074254;28;20489;-80
2024/02/14 05:44:43;;;;;;;38.53;36.43;;;;;;;;;;5074316;28;20850;-79
2024/02/14 05:47:11;;;;;;;39.93;37.73;;;;;;;;;;5073610;28;20811;-79
2024/02/14 05:49:39;;;;;;;45.20;42.73;;;;;;;;;;5074499;28;20848;-78
2024/02/14 05:52:06;;;;;;;45.23;42.73;;;;;;;;;;5074332;28;20786;-79
2024/02/14 05:54:33;;;;;;;45.70;43.10;;;;;;;;;;5074946;28;20446;-79
2024/02/14 05:57:01;;;;;;;46.20;43.60;;;;;;;;;;5074088;28;20446;-79
2024/02/14 05:59:28;;;;;;;52.73;49.73;;;;;;;;;;5074699;28;20470;-80
2024/02/14 06:01:55;;;;;;;53.93;50.87;;;;;;;;;;5075176;28;20449;-79
2024/02/14 06:04:22;;;;;;;57.03;52.90;;;;;;;;;;5075414;28;20460;-79
2024/02/14 06:06:50;;;;;;;53.43;50.37;;;;;;;;;;5078079;28;20448;-80
2024/02/14 06:09:17;;;;;;;50.73;48.03;;;;;;;;;;5080189;28;20482;-80
2024/02/14 06:11:44;;;;;;;59.37;55.83;;;;;;;;;;5075518;28;20478;-80
2024/02/14 06:14:12;;;;;;;59.03;55.50;;;;;;;;;;5074916;28;20453;-80
2024/02/14 06:16:39;;;;;;;57.90;54.40;;;;;;;;;;5074530;28;20454;-79
2024/02/14 06:19:06;;;;;;;54.77;51.50;;;;;;;;;;5074924;28;20550;-79
2024/02/14 06:21:33;;;;;;;57.47;54.17;;;;;;;;;;5074428;28;20461;-79
2024/02/14 06:24:03;;;;;;;50.33;47.17;;;;;;;;;;5075167;28;20496;-79
2024/02/14 06:26:30;;;;;;;50.47;47.57;;;;;;;;;;5075135;28;20469;-79
2024/02/14 06:28:57;;;;;;;60.17;56.57;;;;;;;;;;5074772;28;20492;-79
2024/02/14 06:31:24;;;;;;;61.43;58.10;;;;;;;;;;5078517;28;20436;-79
2024/02/14 06:33:51;;;;;;;62.30;58.53;;;;;;;;;;5094763;28;20497;-80
2024/02/14 06:36:18;;;;;;;64.70;61.10;;;;;;;;;;5086052;28;20458;-79
2024/02/14 06:38:46;;;;;;;64.23;60.27;;;;;;;;;;5074904;28;20488;-79
2024/02/14 06:41:14;;;;;;;62.57;58.87;;;;;;;;;;5075305;28;20500;-80
2024/02/14 06:43:41;;;;;;;67.47;63.30;;;;;;;;;;5074720;28;20895;-79
2024/02/14 06:46:08;;;;;;;60.90;57.20;;;;;;;;;;5073958;28;20453;-79
2024/02/14 06:48:35;;;;;;;63.13;59.30;;;;;;;;;;5074568;28;20496;-79
2024/02/14 06:51:02;;;;;;;60.20;56.50;;;;;;;;;;5074297;28;20424;-79
2024/02/14 06:53:30;;;;;;;60.93;56.90;;;;;;;;;;5073910;28;20475;-80
2024/02/14 06:55:57;;;;;;;58.33;54.93;;;;;;;;;;5073574;28;20549;-77
2024/02/14 06:58:25;;;;;;;56.97;53.20;;;;;;;;;;5071473;28;20523;-78
2024/02/14 07:00:52;;;;;;;59.90;55.90;;;;;;;;;;5078989;28;20436;-79
2024/02/14 07:03:19;;;;;;;60.93;56.93;;;;;;;;;;5091682;28;20485;-78
2024/02/14 07:05:46;;;;;;;58.80;55.33;;;;;;;;;;5091486;28;21053;-79
2024/02/14 07:08:14;;;;;;;63.10;59.37;;;;;;;;;;5091138;28;20825;-79
2024/02/14 07:10:41;;;;;;;66.20;61.67;;;;;;;;;;5088913;28;20543;-79
2024/02/14 07:13:08;;;;;;;60.37;57.03;;;;;;;;;;5092046;28;20466;-78
2024/02/14 07:15:37;;;;;;;61.83;57.43;;;;;;;;;;5092140;28;20499;-79
2024/02/14 07:18:05;;;;;;;59.80;55.47;;;;;;;;;;5074999;28;21068;-79
2024/02/14 07:20:32;;;;;;;59.43;55.13;;;;;;;;;;5081469;28;20522;-78
2024/02/14 07:22:59;;;;;;;58.73;54.33;;;;;;;;;;5074832;28;20490;-79
2024/02/14 07:25:26;;;;;;;58.63;54.80;;;;;;;;;;5070173;28;20454;-79
2024/02/14 07:27:53;;;;;;;55.57;52.13;;;;;;;;;;5070370;28;21049;-78
2024/02/14 07:30:20;;;;;;;56.43;52.70;;;;;;;;;;5070556;28;20503;-79
2024/02/14 07:32:48;;;;;;;58.90;54.80;;;;;;;;;;5073963;28;20456;-78
2024/02/14 07:35:16;;;;;;;58.47;54.57;;;;;;;;;;5091302;28;20445;-79
2024/02/14 07:37:43;;;;;;;56.17;52.97;;;;;;;;;;5090531;28;20472;-79
2024/02/14 07:40:11;;;;;;;58.13;53.50;;;;;;;;;;5091154;28;20448;-78
2024/02/14 07:42:38;;;;;;;62.00;57.83;;;;;;;;;;5090654;28;20506;-79
2024/02/14 07:45:05;;;;;;;59.70;55.20;;;;;;;;;;5090984;28;20506;-77
2024/02/14 07:47:32;;;;;;;74.87;62.20;;;;;;;;;;5091112;28;20518;-78
2024/02/14 07:50:02;;;;;;;59.13;54.33;;;;;;;;;;5091431;28;20502;-78
2024/02/14 07:52:29;;;;;;;57.83;53.93;;;;;;;;;;5091550;28;20437;-78
2024/02/14 07:54:56;;;;;;;52.70;49.10;;;;;;;;;;5091587;28;20453;-79
2024/02/14 07:57:24;;;;;;;44.30;41.70;;;;;;;;;;5081330;28;20497;-83
2024/02/14 07:59:52;;;;;;;51.97;48.63;;;;;;;;;;5091003;28;20449;-79
2024/02/14 08:02:19;;;;;;;52.63;49.13;;;;;;;;;;5075523;28;20502;-79
2024/02/14 08:04:46;;;;;;;48.97;46.07;;;;;;;;;;5070687;28;20424;-78
2024/02/14 08:07:14;;;;;;;48.90;45.70;;;;;;;;;;5071949;28;20453;-79
2024/02/14 08:09:41;;;;;;;50.33;46.93;;;;;;;;;;5090475;28;20453;-78
2024/02/14 08:12:08;;;;;;;50.50;46.90;;;;;;;;;;5081344;28;21143;-77
2024/02/14 08:14:36;;;;;;;47.57;44.30;;;;;;;;;;5091727;28;20506;-77
2024/02/14 08:17:03;;;;;;;49.20;45.90;;;;;;;;;;5089704;28;20453;-77
2024/02/14 08:19:30;;;;;;;48.53;45.40;;;;;;;;;;5090458;28;20529;-78
2024/02/14 08:21:59;;;;;;;45.40;42.60;;;;;;;;;;5089874;28;20435;-77
2024/02/14 08:24:27;;;;;;;46.73;43.47;;;;;;;;;;5090448;28;20463;-78
2024/02/14 08:26:54;;;;;;;48.10;44.90;;;;;;;;;;5089462;28;20484;-79
2024/02/14 08:29:21;;;;;;;43.27;40.83;;;;;;;;;;5089687;28;21036;-76
2024/02/14 08:31:48;;;;;;;43.37;40.33;;;;;;;;;;5089743;28;20490;-78
2024/02/14 08:34:15;;;;;;;45.17;42.10;;;;;;;;;;5089882;28;20502;-77
2024/02/14 08:36:43;;;;;;;43.20;40.20;;;;;;;;;;5089292;28;20415;-78
2024/02/14 08:39:10;;;;;;;42.20;39.50;;;;;;;;;;5089622;28;21143;-78
2024/02/14 08:41:38;;;;;;;47.87;44.67;;;;;;;;;;5078243;28;20453;-77
2024/02/14 08:44:05;;;;;;;46.27;43.20;;;;;;;;;;5073349;28;20481;-77
2024/02/14 08:46:32;;;;;;;46.90;43.80;;;;;;;;;;5073117;28;20999;-77
2024/02/14 08:49:02;;;;;;;42.37;39.77;;;;;;;;;;5073642;28;20526;-79
2024/02/14 08:51:29;;;;;;;45.40;42.47;;;;;;;;;;5073558;28;20445;-77
2024/02/14 08:53:59;;;;;;;45.00;42.10;;;;;;;;;;5073782;28;20452;-78
2024/02/14 08:56:26;;;;;;;44.33;41.43;;;;;;;;;;5073065;28;20412;-78
2024/02/14 08:58:54;;;;;;;47.40;44.30;;;;;;;;;;5073363;28;20469;-79
2024/02/14 09:01:21;;;;;;;46.27;43.10;;;;;;;;;;5073951;28;20441;-78
2024/02/14 09:03:48;;;;;;;44.63;41.60;;;;;;;;;;5071550;28;20481;-79
2024/02/14 09:06:16;;;;;;;42.10;39.60;;;;;;;;;;5073144;28;20416;-77
2024/02/14 09:08:43;;;;;;;46.00;43.00;;;;;;;;;;5073379;28;20466;-78
2024/02/14 09:11:09;;;;;;;45.30;42.40;;;;;;;;;;5074195;28;20490;-77
2024/02/14 09:13:37;;;;;;;43.43;40.67;;;;;;;;;;5091708;28;20423;-78
2024/02/14 09:16:06;;;;;;;48.63;45.40;;;;;;;;;;5080356;28;20428;-79
2024/02/14 09:18:33;;;;;;;42.97;40.27;;;;;;;;;;5088934;28;20842;-77
2024/02/14 09:21:01;;;;;;;42.13;39.70;;;;;;;;;;5073484;28;20981;-77
2024/02/14 09:23:29;;;;;;;44.57;41.57;;;;;;;;;;5074623;28;20539;-78
2024/02/14 09:25:57;;;;;;;44.07;41.67;;;;;;;;;;5072799;28;20527;-79
2024/02/14 09:28:25;;;;;;;44.90;41.70;;;;;;;;;;5072528;28;20477;-77
2024/02/14 09:30:52;;;;;;;46.63;43.73;;;;;;;;;;5078864;28;20832;-77
2024/02/14 09:33:20;;;;;;;43.77;40.50;;;;;;;;;;5091651;28;20812;-77
2024/02/14 09:35:47;;;;;;;45.13;42.40;;;;;;;;;;5093348;28;20434;-78
2024/02/14 09:38:14;;;;;;;42.70;40.20;;;;;;;;;;5092708;28;20469;-77
2024/02/14 09:40:42;;;;;;;45.97;42.67;;;;;;;;;;5093255;28;20420;-78
2024/02/14 09:43:12;;;;;;;47.73;44.83;;;;;;;;;;5092972;28;20480;-79
2024/02/14 09:45:42;;;;;;;43.83;40.93;;;;;;;;;;5093114;28;20490;-78
2024/02/14 09:48:10;;;;;;;45.07;42.27;;;;;;;;;;5092146;28;20968;-77
2024/02/14 09:50:40;;;;;;;49.20;45.77;;;;;;;;;;5093122;28;20432;-80
2024/02/14 09:53:08;;;;;;;45.50;42.43;;;;;;;;;;5092450;28;20460;-78
2024/02/14 09:55:35;;;;;;;48.77;45.60;;;;;;;;;;5092729;28;20449;-77
2024/02/14 09:58:05;;;;;;;46.67;43.50;;;;;;;;;;5091823;28;20565;-79
2024/02/14 10:00:33;;;;;;;44.83;41.63;;;;;;;;;;5092564;28;20456;-78
2024/02/14 10:03:00;;;;;;;47.00;43.70;;;;;;;;;;5092705;28;20449;-78
2024/02/14 10:05:27;;;;;;;47.90;44.80;;;;;;;;;;5092156;28;21006;-78
2024/02/14 10:07:57;;;;;;;42.43;39.60;;;;;;;;;;5091664;28;20526;-77
2024/02/14 10:10:24;;;;;;;42.83;40.23;;;;;;;;;;5090450;28;20449;-78
2024/02/14 10:12:51;;;;;;;46.00;42.90;;;;;;;;;;5093266;28;20987;-79
2024/02/14 10:15:18;;;;;;;47.40;44.23;;;;;;;;;;5093298;28;20841;-80
2024/02/14 10:17:45;;;;;;;47.60;43.77;;;;;;;;;;5093072;28;21217;-78
2024/02/14 10:20:13;;;;;;;43.60;40.60;;;;;;;;;;5093192;28;20804;-79
2024/02/14 10:22:40;;;;;;;41.10;38.47;;;;;;;;;;5093579;28;20433;-78
2024/02/14 10:25:09;;;;;;;46.60;43.20;;;;;;;;;;5092986;28;20547;-78
2024/02/14 10:27:37;;;;;;;41.40;38.80;;;;;;;;;;5093026;28;20475;-80
2024/02/14 10:30:08;;;;;;;43.87;41.07;;;;;;;;;;5074566;28;20497;-80
2024/02/14 10:32:36;;;;;;;47.27;44.03;;;;;;;;;;5073378;28;20430;-80
2024/02/14 10:35:04;;;;;;;47.63;44.17;;;;;;;;;;5073759;28;20453;-80
2024/02/14 10:37:31;;;;;;;44.33;41.37;;;;;;;;;;5072872;28;20433;-78
2024/02/14 10:40:01;;;;;;;43.13;40.20;;;;;;;;;;5072264;28;20484;-78
2024/02/14 10:42:29;;;;;;;44.13;41.23;;;;;;;;;;5072097;28;20442;-78
2024/02/14 10:44:57;;;;;;;46.33;43.00;;;;;;;;;;5072314;28;20461;-79
2024/02/14 10:47:26;;;;;;;43.87;40.97;;;;;;;;;;5071248;28;20442;-80
2024/02/14 10:49:54;;;;;;;36.20;34.10;;;;;;;;;;5072183;28;20421;-79
2024/02/14 10:52:21;;;;;;;41.60;38.50;;;;;;;;;;5085908;28;20441;-80
2024/02/14 10:54:50;;;;;;;41.43;38.40;;;;;;;;;;5088678;28;20933;-79
2024/02/14 10:57:19;;;;;;;42.13;38.77;;;;;;;;;;5075736;28;20477;-79
2024/02/14 10:59:48;;;;;;;42.40;39.60;;;;;;;;;;5072756;28;20455;-80
2024/02/14 11:02:16;;;;;;;40.37;37.47;;;;;;;;;;5071836;28;20479;-79
2024/02/14 11:04:43;;;;;;;42.87;39.97;;;;;;;;;;5071325;28;20521;-79
2024/02/14 11:07:12;;;;;;;40.97;38.03;;;;;;;;;;5071292;28;20507;-79
2024/02/14 11:09:40;;;;;;;44.20;41.17;;;;;;;;;;5071917;28;20507;-79
2024/02/14 11:12:09;;;;;;;44.33;41.27;;;;;;;;;;5072107;28;20488;-80
2024/02/14 11:14:36;;;;;;;44.37;41.27;;;;;;;;;;5071655;28;20423;-80
2024/02/14 11:17:09;;;;;;;39.10;36.57;;;;;;;;;;5072061;28;20844;-79
2024/02/14 11:19:36;;;;;;;41.50;38.60;;;;;;;;;;5071564;28;21003;-78
2024/02/14 11:22:12;;;;;;;43.70;40.90;;;;;;;;;;5070323;28;20869;-78
2024/02/14 11:24:39;;;;;;;45.27;42.20;;;;;;;;;;5071724;28;20447;-79
2024/02/14 11:27:11;;;;;;;44.83;41.73;;;;;;;;;;5071199;28;20542;-79
2024/02/14 11:29:40;;;;;;;41.00;38.57;;;;;;;;;;5086032;28;20423;-78
2024/02/14 11:32:09;;;;;;;41.57;38.67;;;;;;;;;;5091610;28;20444;-79
2024/02/14 11:34:36;;;;;;;35.30;33.13;;;;;;;;;;5079914;28;20421;-80
2024/02/14 11:37:04;;;;;;;41.00;38.40;;;;;;;;;;5070652;28;20458;-78
2024/02/14 11:39:33;;;;;;;39.37;36.77;;;;;;;;;;5071671;28;20474;-78
2024/02/14 11:42:00;;;;;;;37.57;35.27;;;;;;;;;;5071932;28;20460;-79
2024/02/14 11:44:27;;;;;;;42.40;39.47;;;;;;;;;;5071280;28;21061;-79
2024/02/14 11:46:54;;;;;;;39.13;36.43;;;;;;;;;;5071438;28;20446;-79
2024/02/14 11:49:22;;;;;;;40.80;38.23;;;;;;;;;;5071282;28;20470;-79
2024/02/14 11:51:49;;;;;;;42.10;39.00;;;;;;;;;;5071600;28;20490;-79
2024/02/14 11:54:18;;;;;;;40.73;38.13;;;;;;;;;;5071604;28;20446;-79
2024/02/14 11:56:45;;;;;;;38.80;36.30;;;;;;;;;;5070886;28;20450;-79
2024/02/14 11:59:12;;;;;;;40.57;37.50;;;;;;;;;;5071291;28;20951;-80
2024/02/14 12:01:40;;;;;;;35.77;33.67;;;;;;;;;;5070264;28;20904;-78
2024/02/14 12:04:08;;;;;;;42.53;39.80;;;;;;;;;;5070534;28;20578;-78
2024/02/14 12:06:37;;;;;;;41.10;38.60;;;;;;;;;;5070037;28;20464;-79
2024/02/14 12:09:07;;;;;;;39.90;37.60;;;;;;;;;;5070490;28;20875;-78
2024/02/14 12:11:37;;;;;;;39.67;37.27;;;;;;;;;;5070396;28;20430;-79
2024/02/14 12:14:04;;;;;;;41.00;38.23;;;;;;;;;;5070645;28;20438;-79
2024/02/14 12:16:32;;;;;;;40.40;37.60;;;;;;;;;;5069824;28;20442;-78
2024/02/14 12:19:09;;;;;;;38.93;36.60;;;;;;;;;;5070368;28;20543;-79
2024/02/14 12:21:38;;;;;;;39.93;37.40;;;;;;;;;;5070413;28;20465;-80
2024/02/14 12:24:06;;;;;;;37.20;35.00;;;;;;;;;;5070518;28;20515;-79
2024/02/14 12:26:33;;;;;;;34.80;32.70;;;;;;;;;;5070280;28;20416;-79
2024/02/14 12:29:03;;;;;;;39.27;36.60;;;;;;;;;;5084458;28;20968;-80
2024/02/14 12:31:31;;;;;;;38.00;35.70;;;;;;;;;;5088611;28;21489;-80
2024/02/14 12:33:59;;;;;;;39.80;37.30;;;;;;;;;;5086487;28;20458;-83
2024/02/14 12:36:26;;;;;;;42.00;39.40;;;;;;;;;;5071579;28;20545;-84
2024/02/14 12:38:55;;;;;;;41.23;38.83;;;;;;;;;;5080785;28;20443;-83
2024/02/14 12:41:23;;;;;;;37.60;35.30;;;;;;;;;;5090676;28;20498;-84
2024/02/14 12:43:50;;;;;;;39.50;37.10;;;;;;;;;;5071688;28;20877;-79
2024/02/14 12:46:17;;;;;;;37.27;34.90;;;;;;;;;;5070402;28;20449;-81
2024/02/14 12:48:44;;;;;;;41.40;38.90;;;;;;;;;;5070776;28;21027;-83
2024/02/14 12:51:11;;;;;;;38.67;36.17;;;;;;;;;;5078197;28;20506;-76
2024/02/14 12:53:38;;;;;;;38.50;36.27;;;;;;;;;;5071266;28;20508;-82
2024/02/14 12:56:07;;;;;;;42.43;40.03;;;;;;;;;;5071793;28;20446;-80
2024/02/14 12:58:34;;;;;;;41.70;38.97;;;;;;;;;;5082982;28;20451;-80
2024/02/14 13:01:05;;;;;;;38.70;36.10;;;;;;;;;;5077186;28;20467;-82
2024/02/14 13:06:37;;;;;;;38.57;36.27;;;;;;;;;;5087356;28;20524;-84
2024/02/14 13:09:08;;;;;;;41.60;39.20;;;;;;;;;;5070500;28;20473;-82
2024/02/14 13:11:37;;;;;;;41.23;38.53;;;;;;;;;;5070933;28;20433;-80
2024/02/14 13:14:05;;;;;;;40.80;38.20;;;;;;;;;;5072054;28;20461;-81
2024/02/14 13:16:32;;;;;;;39.73;37.07;;;;;;;;;;5071544;28;20450;-81
2024/02/14 13:18:59;;;;;;;41.60;39.00;;;;;;;;;;5072025;28;20441;-83
2024/02/14 13:21:26;;;;;;;40.30;37.57;;;;;;;;;;5071911;28;20428;-82
2024/02/14 13:23:53;;;;;;;39.93;37.27;;;;;;;;;;5071976;28;20869;-81
2024/02/14 13:26:20;;;;;;;44.20;41.23;;;;;;;;;;5071256;28;20554;-82
2024/02/14 13:28:48;;;;;;;41.53;38.83;;;;;;;;;;5073109;28;20457;-84
2024/02/14 13:31:15;;;;;;;43.60;40.20;;;;;;;;;;5075795;28;20518;-84
2024/02/14 13:33:42;;;;;;;43.70;40.63;;;;;;;;;;5075144;28;20433;-84
2024/02/14 13:36:09;;;;;;;48.63;45.00;;;;;;;;;;5094250;28;20427;-85
2024/02/14 13:38:38;;;;;;;38.90;36.23;;;;;;;;;;5096086;28;20496;-83
2024/02/14 13:41:05;;;;;;;44.20;41.30;;;;;;;;;;5094047;28;20531;-78
2024/02/14 13:43:32;;;;;;;41.13;38.10;;;;;;;;;;5093774;28;20490;-78
2024/02/14 13:46:00;;;;;;;41.43;38.80;;;;;;;;;;5093655;28;20533;-80
2024/02/14 13:48:27;;;;;;;43.47;40.57;;;;;;;;;;5092642;28;20464;-78
2024/02/14 13:50:54;;;;;;;41.63;39.13;;;;;;;;;;5093203;28;20453;-78
2024/02/14 13:53:22;;;;;;;38.13;35.83;;;;;;;;;;5092943;28;20444;-77
2024/02/14 13:55:51;;;;;;;37.80;35.70;;;;;;;;;;5093070;28;20445;-78
2024/02/14 13:58:18;;;;;;;39.03;36.87;;;;;;;;;;5092624;28;20483;-78
2024/02/14 14:00:45;;;;;;;40.10;37.70;;;;;;;;;;5092735;28;20501;-78
2024/02/14 14:03:14;;;;;;;34.63;32.67;;;;;;;;;;5092918;28;20441;-78
2024/02/14 14:05:41;;;;;;;32.97;31.13;;;;;;;;;;5092027;28;20484;-77
2024/02/14 14:08:08;;;;;;;35.73;33.83;;;;;;;;;;5092053;28;20465;-79
2024/02/14 14:10:35;;;;;;;33.87;32.13;;;;;;;;;;5091972;28;20449;-79
2024/02/14 14:13:03;;;;;;;33.33;31.63;;;;;;;;;;5092679;28;20457;-78
2024/02/14 14:15:32;;;;;;;34.37;32.47;;;;;;;;;;5091154;28;20524;-79
2024/02/14 14:17:59;;;;;;;32.77;31.07;;;;;;;;;;5091909;28;20479;-79
2024/02/14 14:20:27;;;;;;;33.77;31.80;;;;;;;;;;5090105;28;20461;-78
2024/02/14 14:22:54;;;;;;;32.13;30.43;;;;;;;;;;5071346;28;20450;-78
2024/02/14 14:25:21;;;;;;;34.53;32.63;;;;;;;;;;5072442;28;20873;-78
2024/02/14 14:27:49;;;;;;;34.15;32.25;;;;;;;;;;5071683;28;20914;-79
2024/02/14 14:30:16;;;;;;;34.97;32.93;;;;;;;;;;5084270;28;20214;-78
2024/02/14 14:32:43;;;;;;;32.60;30.77;;;;;;;;;;5087992;28;20970;-79